CheckWX is a tool to help pilots better visualize weather data.  It is not intended as a substitute for an official pre-flight weather briefing.

19:35:13 UTC

EGOS METAR
RAF Shawbury Airport
Shawbury, United Kingdom
Current

45 mins ago

EGOS 261850Z AUTO 29010KT 9999 FEW050/// 16/07 Q1011
Observed
May-26 @ 18:50 UTC
Wind
  • 290° at 10 KTS
Visibility
10,000+ meters
Flight Rules
VFR
Cloud Levels
  • Few at 5,000' AGL
Temperature
16°C / 61°F
Dewpoint
C / 45°F
Humidity
55%
Altimeter
29.85" Hg
Pressure
1010.92 hPa
Previous

2 hours ago

EGOS 261750Z AUTO 30010KT 9999 BKN048/// 16/08 Q1011
Observed
May-26 @ 17:50 UTC
Wind
  • 300° at 10 KTS
Visibility
10,000+ meters
Flight Rules
VFR
Cloud Levels
  • Broken at 4,800' AGL
Temperature
16°C / 61°F
Dewpoint
C / 46°F
Humidity
59%
Altimeter
29.85" Hg
Pressure
1010.92 hPa
Previous

3 hours ago

EGOS 261650Z AUTO 32012KT 9999 BKN046/// 16/07 Q1011
Observed
May-26 @ 16:50 UTC
Wind
  • 320° at 12 KTS
Visibility
10,000+ meters
Flight Rules
VFR
Cloud Levels
  • Broken at 4,600' AGL
Temperature
16°C / 61°F
Dewpoint
C / 45°F
Humidity
55%
Altimeter
29.85" Hg
Pressure
1010.92 hPa